createdAt,value
2019-03-24T00:02:12.642Z,31.30
2019-03-24T00:04:43.204Z,34.70
2019-03-24T00:07:13.726Z,31.25
2019-03-24T00:09:44.357Z,28.83
2019-03-24T00:12:14.807Z,26.12
2019-03-24T00:14:45.307Z,33.70
2019-03-24T00:17:15.754Z,31.05
2019-03-24T00:19:46.305Z,31.82
2019-03-24T00:22:17.218Z,29.70
2019-03-24T00:24:47.785Z,28.12
2019-03-24T00:27:18.398Z,32.30
2019-03-24T00:29:49.347Z,27.10
2019-03-24T00:32:19.801Z,32.40
2019-03-24T00:34:50.393Z,35.80
2019-03-24T00:37:20.907Z,34.65
2019-03-24T00:39:51.453Z,32.45
2019-03-24T00:42:21.934Z,30.32
2019-03-24T00:44:52.475Z,34.63
2019-03-24T00:47:22.919Z,34.85
2019-03-24T00:49:53.474Z,29.02
2019-03-24T00:52:24.002Z,36.42
2019-03-24T00:54:54.598Z,34.30
2019-03-24T00:57:25.029Z,41.42
2019-03-24T00:59:55.578Z,35.20
2019-03-24T01:02:26.037Z,39.67
2019-03-24T01:04:56.597Z,36.77
2019-03-24T01:07:27.053Z,35.68
2019-03-24T01:09:57.673Z,32.30
2019-03-24T01:12:28.161Z,34.53
2019-03-24T01:15:00.108Z,37.83
2019-03-24T01:17:30.761Z,37.55
2019-03-24T01:20:01.321Z,32.23
2019-03-24T01:22:31.921Z,37.48
2019-03-24T01:25:03.761Z,30.95
2019-03-24T01:27:34.347Z,30.90
2019-03-24T01:30:07.259Z,34.85
2019-03-24T01:32:38.384Z,34.73
2019-03-24T01:35:08.953Z,37.78
2019-03-24T01:37:39.462Z,34.80
2019-03-24T01:40:09.948Z,32.93
2019-03-24T01:42:40.564Z,32.38
2019-03-24T01:45:11.170Z,33.48
2019-03-24T01:47:42.674Z,39.08
2019-03-24T01:50:13.285Z,34.67
2019-03-24T01:52:43.819Z,35.28
2019-03-24T01:55:14.318Z,42.30
2019-03-24T01:57:45.172Z,34.80
2019-03-24T02:00:15.726Z,28.12
2019-03-24T02:02:46.324Z,31.70
2019-03-24T02:05:16.813Z,36.13
2019-03-24T02:07:47.346Z,31.27
2019-03-24T02:10:17.889Z,30.20
2019-03-24T02:12:48.479Z,32.00
2019-03-24T02:15:19.009Z,28.85
2019-03-24T02:17:49.534Z,29.32
2019-03-24T02:20:20.220Z,28.30
2019-03-24T02:22:50.756Z,34.45
2019-03-24T02:25:21.248Z,30.90
2019-03-24T02:27:51.796Z,28.30
2019-03-24T02:30:22.338Z,34.63
2019-03-24T02:32:52.893Z,30.82
2019-03-24T02:35:23.376Z,34.08
2019-03-24T02:37:53.847Z,29.30
2019-03-24T02:40:24.658Z,31.90
2019-03-24T02:42:55.119Z,31.42
2019-03-24T02:45:25.683Z,30.52
2019-03-24T02:47:56.133Z,28.20
2019-03-24T02:50:28.224Z,32.03
2019-03-24T02:52:58.659Z,31.97
2019-03-24T02:55:29.221Z,32.40
2019-03-24T02:58:00.745Z,29.98
2019-03-24T03:00:31.304Z,31.75
2019-03-24T03:03:01.749Z,32.80
2019-03-24T03:05:32.295Z,32.38
2019-03-24T03:08:02.761Z,28.55
2019-03-24T03:10:33.344Z,36.93
2019-03-24T03:13:03.869Z,36.80
2019-03-24T03:15:34.616Z,31.57
2019-03-24T03:18:05.144Z,36.67
2019-03-24T03:20:35.619Z,31.63
2019-03-24T03:23:06.126Z,30.00
2019-03-24T03:25:36.632Z,33.18
2019-03-24T03:28:07.137Z,30.70
2019-03-24T03:30:37.643Z,33.92
2019-03-24T03:33:08.295Z,38.58
2019-03-24T03:35:38.775Z,49.27
2019-03-24T03:38:09.301Z,48.28
2019-03-24T03:40:39.785Z,57.85
2019-03-24T03:43:10.302Z,56.48
2019-03-24T03:45:40.876Z,59.75
2019-03-24T03:48:11.422Z,53.30
2019-03-24T03:50:41.969Z,51.35
2019-03-24T03:53:12.468Z,54.20
2019-03-24T03:55:43.017Z,58.47
2019-03-24T03:58:13.510Z,50.35
2019-03-24T04:00:44.085Z,41.73
2019-03-24T04:03:14.651Z,49.03
2019-03-24T04:05:45.286Z,46.33
2019-03-24T04:08:15.804Z,34.50
2019-03-24T04:10:46.419Z,37.03
2019-03-24T04:13:16.980Z,40.38
2019-03-24T04:15:47.644Z,41.30
2019-03-24T04:18:18.236Z,51.70
2019-03-24T04:20:48.719Z,45.70
2019-03-24T04:23:19.266Z,40.37
2019-03-24T04:25:49.761Z,53.23
2019-03-24T04:28:20.308Z,54.40
2019-03-24T04:30:50.881Z,60.67
2019-03-24T04:33:21.342Z,49.63
2019-03-24T04:35:51.902Z,46.93
2019-03-24T04:38:22.421Z,45.90
2019-03-24T04:40:52.973Z,40.50
2019-03-24T04:43:23.426Z,48.17
2019-03-24T04:45:53.914Z,45.13
2019-03-24T04:48:24.463Z,45.50
2019-03-24T04:50:56.011Z,45.80
2019-03-24T04:53:26.463Z,52.63
2019-03-24T04:55:56.939Z,47.03
2019-03-24T04:58:27.404Z,49.67
2019-03-24T05:00:57.891Z,49.43
2019-03-24T05:03:28.415Z,49.77
2019-03-24T05:05:58.907Z,47.37
2019-03-24T05:08:29.350Z,43.83
2019-03-24T05:10:59.868Z,46.13
2019-03-24T05:13:30.324Z,36.90
2019-03-24T05:16:00.797Z,37.90
2019-03-24T05:18:31.264Z,39.70
2019-03-24T05:21:01.745Z,40.13
2019-03-24T05:23:32.399Z,42.03
2019-03-24T05:26:02.898Z,45.37
2019-03-24T05:28:33.441Z,40.23
2019-03-24T05:31:03.978Z,38.10
2019-03-24T05:33:34.445Z,35.37
2019-03-24T05:36:04.929Z,37.90
2019-03-24T05:38:35.432Z,37.07
2019-03-24T05:41:06.380Z,38.77
2019-03-24T05:43:37.747Z,31.40
2019-03-24T05:46:08.256Z,32.10
2019-03-24T05:48:38.809Z,26.82
2019-03-24T05:51:10.150Z,21.30
2019-03-24T05:53:41.976Z,23.70
2019-03-24T05:56:12.640Z,23.50
2019-03-24T05:58:43.158Z,19.47
2019-03-24T06:01:13.668Z,20.23
2019-03-24T06:03:44.199Z,21.15
2019-03-24T06:06:14.674Z,22.90
2019-03-24T06:08:45.191Z,29.97
2019-03-24T06:11:15.891Z,32.20
2019-03-24T06:13:46.326Z,29.70
2019-03-24T06:16:17.979Z,28.83
2019-03-24T06:18:48.428Z,33.10
2019-03-24T06:21:18.919Z,34.27
2019-03-24T06:23:49.518Z,28.65
2019-03-24T06:26:20.300Z,33.88
2019-03-24T06:28:50.745Z,29.00
2019-03-24T06:31:21.218Z,31.10
2019-03-24T06:33:51.669Z,29.20
2019-03-24T06:36:23.084Z,35.03
2019-03-24T06:38:53.619Z,31.42
2019-03-24T06:41:24.282Z,31.93
2019-03-24T06:43:54.991Z,33.85
2019-03-24T06:46:25.604Z,32.13
2019-03-24T06:48:56.122Z,31.00
2019-03-24T06:51:26.730Z,26.57
2019-03-24T06:54:05.376Z,26.57
2019-03-24T06:56:35.915Z,31.90
2019-03-24T06:59:06.366Z,24.02
2019-03-24T07:01:43.805Z,25.62
2019-03-24T07:04:18.218Z,29.35
2019-03-24T07:06:48.861Z,28.52
2019-03-24T07:09:19.395Z,26.73
2019-03-24T07:11:49.954Z,28.65
2019-03-24T07:14:20.484Z,25.12
2019-03-24T07:16:51.001Z,25.17
2019-03-24T07:19:21.611Z,21.62
2019-03-24T07:21:52.198Z,20.75
2019-03-24T07:24:22.650Z,18.40
2019-03-24T07:26:53.118Z,19.02
2019-03-24T07:29:23.576Z,23.62
2019-03-24T07:31:54.145Z,19.50
2019-03-24T07:34:24.889Z,23.55
2019-03-24T07:36:55.437Z,17.92
2019-03-24T07:39:25.977Z,18.92
2019-03-24T07:41:56.449Z,21.48
2019-03-24T07:44:27.107Z,14.90
2019-03-24T07:46:58.711Z,22.17
2019-03-24T07:49:29.228Z,18.98
2019-03-24T07:52:00.887Z,21.52
2019-03-24T07:54:31.442Z,16.17
2019-03-24T07:57:02.048Z,16.50
2019-03-24T07:59:32.503Z,14.05
2019-03-24T08:02:03.059Z,20.45
2019-03-24T08:04:33.557Z,18.75
2019-03-24T08:07:04.020Z,11.03
2019-03-24T08:09:34.537Z,10.25
2019-03-24T08:12:05.180Z,14.28
2019-03-24T08:14:37.289Z,9.28
2019-03-24T08:17:07.832Z,10.58
2019-03-24T08:19:38.435Z,9.58
2019-03-24T08:22:08.893Z,6.42
2019-03-24T08:24:39.462Z,9.03
2019-03-24T08:27:10.139Z,9.50
2019-03-24T08:29:40.602Z,7.25
2019-03-24T08:32:11.291Z,7.55
2019-03-24T08:34:41.787Z,9.70
2019-03-24T08:37:12.323Z,9.35
2019-03-24T08:39:42.836Z,10.10
2019-03-24T08:42:13.446Z,8.83
2019-03-24T08:44:43.973Z,7.75
2019-03-24T08:47:14.500Z,6.45
2019-03-24T08:49:45.017Z,10.80
2019-03-24T08:52:15.663Z,10.72
2019-03-24T08:54:46.090Z,8.83
2019-03-24T08:57:16.620Z,10.78
2019-03-24T08:59:47.207Z,10.03
2019-03-24T09:02:17.675Z,12.43
2019-03-24T09:04:48.284Z,8.80
2019-03-24T09:07:18.829Z,12.20
2019-03-24T09:09:49.357Z,12.90
2019-03-24T09:12:19.833Z,8.98
2019-03-24T09:14:50.429Z,9.08
2019-03-24T09:17:20.977Z,11.10
2019-03-24T09:19:51.555Z,7.75
2019-03-24T09:22:22.082Z,8.10
2019-03-24T09:24:52.604Z,10.18
2019-03-24T09:27:23.173Z,10.43
2019-03-24T09:29:54.767Z,9.50
2019-03-24T09:32:25.330Z,10.35
2019-03-24T09:34:55.839Z,7.67
2019-03-24T09:37:26.380Z,9.15
2019-03-24T09:39:56.890Z,12.58
2019-03-24T09:42:27.360Z,9.53
2019-03-24T09:44:59.085Z,10.60
2019-03-24T09:47:29.614Z,9.15
2019-03-24T09:50:00.054Z,10.18
2019-03-24T09:52:31.241Z,10.30
2019-03-24T09:55:01.969Z,9.88
2019-03-24T09:57:32.570Z,7.62
2019-03-24T10:00:05.281Z,5.25
2019-03-24T10:02:36.180Z,5.47
2019-03-24T10:05:06.702Z,9.45
2019-03-24T10:07:38.387Z,9.33
2019-03-24T10:10:09.971Z,7.70
2019-03-24T10:12:40.521Z,12.78
2019-03-24T10:15:11.965Z,12.00
2019-03-24T10:17:42.931Z,8.43
2019-03-24T10:20:13.526Z,12.78
2019-03-24T10:22:44.110Z,10.10
2019-03-24T10:25:14.702Z,10.58
2019-03-24T10:27:45.165Z,14.30
2019-03-24T10:30:15.905Z,8.15
2019-03-24T10:32:46.490Z,12.07
2019-03-24T10:35:17.123Z,14.20
2019-03-24T10:37:47.677Z,7.22
2019-03-24T10:40:28.078Z,6.20
2019-03-24T10:42:50.464Z,8.08
2019-03-24T10:45:21.043Z,13.40
2019-03-24T10:47:51.591Z,8.35
2019-03-24T10:50:22.145Z,9.68
2019-03-24T10:52:52.718Z,10.82
2019-03-24T10:55:23.213Z,8.40
2019-03-24T10:57:53.770Z,9.88
2019-03-24T11:00:38.923Z,11.75
2019-03-24T11:03:09.508Z,7.80
2019-03-24T11:05:40.028Z,16.75
2019-03-24T11:08:10.570Z,9.13
2019-03-24T11:10:41.097Z,9.50
2019-03-24T11:13:11.709Z,9.43
2019-03-24T11:15:42.268Z,9.33
2019-03-24T11:18:12.794Z,7.83
2019-03-24T11:20:43.309Z,11.05
2019-03-24T11:23:13.781Z,8.75
2019-03-24T11:25:44.220Z,9.10
2019-03-24T11:28:14.736Z,7.90
2019-03-24T11:30:45.262Z,8.70
2019-03-24T11:33:15.729Z,9.93
2019-03-24T11:35:46.150Z,8.93
2019-03-24T11:38:16.991Z,5.97
2019-03-24T11:40:47.552Z,7.80
2019-03-24T11:43:18.343Z,9.73
2019-03-24T11:45:48.887Z,8.98
2019-03-24T11:48:19.460Z,11.28
2019-03-24T11:50:49.988Z,6.78
2019-03-24T11:53:20.441Z,7.05
2019-03-24T11:55:50.945Z,7.37
2019-03-24T11:58:21.654Z,10.10
2019-03-24T12:00:52.201Z,8.58
2019-03-24T12:03:22.642Z,6.85
2019-03-24T12:05:53.250Z,10.15
2019-03-24T12:08:23.849Z,5.20
2019-03-24T12:10:55.090Z,6.80
2019-03-24T12:13:25.609Z,9.30
2019-03-24T12:15:56.297Z,10.70
2019-03-24T12:18:26.800Z,6.80
2019-03-24T12:20:57.343Z,8.48
2019-03-24T12:23:27.867Z,7.92
2019-03-24T12:25:58.386Z,8.00
2019-03-24T12:28:28.959Z,8.63
2019-03-24T12:30:59.442Z,9.58
2019-03-24T12:33:30.057Z,9.83
2019-03-24T12:36:00.699Z,7.28
2019-03-24T12:38:31.123Z,9.13
2019-03-24T12:41:01.604Z,6.08
2019-03-24T12:43:32.165Z,7.92
2019-03-24T12:46:02.663Z,5.47
2019-03-24T12:48:33.166Z,4.97
2019-03-24T12:51:04.692Z,7.17
2019-03-24T12:53:36.267Z,3.37
2019-03-24T12:56:08.410Z,7.87
2019-03-24T12:58:38.964Z,6.30
2019-03-24T13:01:09.600Z,5.72
2019-03-24T13:03:40.329Z,5.58
2019-03-24T13:06:10.864Z,6.85
2019-03-24T13:08:42.668Z,5.85
2019-03-24T13:11:18.050Z,5.42
2019-03-24T13:13:48.480Z,7.60
2019-03-24T13:16:18.982Z,9.43
2019-03-24T13:18:49.497Z,5.58
2019-03-24T13:21:20.054Z,7.67
2019-03-24T13:23:50.571Z,9.18
2019-03-24T13:26:21.156Z,7.03
2019-03-24T13:28:51.680Z,8.35
2019-03-24T13:31:22.293Z,7.55
2019-03-24T13:33:54.980Z,5.50
2019-03-24T13:36:25.453Z,12.10
2019-03-24T13:38:56.043Z,6.83
2019-03-24T13:41:26.597Z,7.62
2019-03-24T13:43:57.041Z,8.08
2019-03-24T13:46:27.614Z,8.13
2019-03-24T13:48:58.137Z,5.25
2019-03-24T13:51:28.688Z,4.58
2019-03-24T13:54:00.090Z,5.97
2019-03-24T13:56:30.756Z,3.42
2019-03-24T13:59:01.351Z,5.35
2019-03-24T14:01:31.955Z,14.93
2019-03-24T14:04:02.524Z,18.02
2019-03-24T14:06:33.146Z,3.65
2019-03-24T14:09:04.661Z,4.78
2019-03-24T14:11:35.242Z,5.65
2019-03-24T14:14:05.697Z,9.83
2019-03-24T14:16:36.225Z,5.85
2019-03-24T14:19:06.669Z,4.50
2019-03-24T14:21:37.277Z,5.80
2019-03-24T14:24:07.814Z,4.95
2019-03-24T14:26:38.291Z,3.45
2019-03-24T14:29:08.799Z,3.35
2019-03-24T14:31:39.269Z,3.80
2019-03-24T14:34:09.863Z,5.33
2019-03-24T14:36:40.338Z,3.40
2019-03-24T14:39:10.769Z,4.12
2019-03-24T14:41:41.402Z,3.90
2019-03-24T14:44:12.894Z,3.33
2019-03-24T14:46:43.665Z,3.27
2019-03-24T14:49:14.109Z,4.60
2019-03-24T14:51:44.641Z,5.60
2019-03-24T14:54:15.224Z,5.80
2019-03-24T14:56:45.757Z,5.60
2019-03-24T14:59:16.206Z,4.70
2019-03-24T15:01:46.758Z,5.05
2019-03-24T15:04:17.392Z,4.60
2019-03-24T15:06:48.261Z,4.53
2019-03-24T15:09:18.821Z,8.85
2019-03-24T15:11:49.423Z,8.70
2019-03-24T15:14:19.937Z,12.35
2019-03-24T15:16:51.403Z,8.10
2019-03-24T15:19:21.925Z,6.17
2019-03-24T15:21:52.424Z,7.83
2019-03-24T15:24:22.865Z,4.25
2019-03-24T15:26:53.414Z,8.20
2019-03-24T15:29:23.861Z,5.85
2019-03-24T15:31:54.512Z,6.37
2019-03-24T15:34:26.326Z,4.92
2019-03-24T15:36:57.864Z,6.78
2019-03-24T15:39:28.368Z,4.35
2019-03-24T15:41:58.913Z,7.65
2019-03-24T15:44:29.554Z,4.20
2019-03-24T15:47:00.226Z,3.65
2019-03-24T15:49:30.727Z,6.37
2019-03-24T15:52:02.249Z,6.22
2019-03-24T15:54:32.811Z,4.50
2019-03-24T15:57:03.290Z,3.12
2019-03-24T15:59:33.771Z,10.30
2019-03-24T16:02:04.420Z,8.93
2019-03-24T16:04:34.944Z,5.58
2019-03-24T16:07:05.424Z,6.83
2019-03-24T16:09:36.121Z,9.95
2019-03-24T16:12:06.654Z,4.83
2019-03-24T16:14:37.187Z,6.22
2019-03-24T16:17:07.666Z,4.83
2019-03-24T16:19:38.280Z,4.92
2019-03-24T16:22:08.904Z,4.90
2019-03-24T16:24:39.371Z,6.75
2019-03-24T16:27:09.850Z,8.45
2019-03-24T16:29:40.422Z,5.72
2019-03-24T16:32:10.987Z,7.33
2019-03-24T16:34:41.566Z,3.92
2019-03-24T16:37:12.553Z,5.33
2019-03-24T16:39:43.220Z,4.28
2019-03-24T16:42:13.749Z,5.90
2019-03-24T16:44:44.270Z,5.08
2019-03-24T16:47:14.727Z,4.72
2019-03-24T16:49:45.256Z,8.00
2019-03-24T16:52:15.965Z,10.08
2019-03-24T16:54:46.456Z,8.93
2019-03-24T16:57:17.200Z,6.87
2019-03-24T16:59:47.637Z,10.70
2019-03-24T17:02:18.141Z,12.55
2019-03-24T17:04:49.359Z,6.97
2019-03-24T17:07:19.832Z,8.75
2019-03-24T17:09:50.340Z,9.95
2019-03-24T17:12:21.050Z,11.05
2019-03-24T17:14:51.668Z,15.40
2019-03-24T17:17:22.233Z,17.52
2019-03-24T17:19:52.765Z,13.50
2019-03-24T17:22:23.273Z,13.68
2019-03-24T17:24:53.919Z,17.50
2019-03-24T17:27:24.454Z,18.25
2019-03-24T17:29:54.981Z,17.23
2019-03-24T17:32:25.515Z,24.67
2019-03-24T17:34:56.042Z,24.25
2019-03-24T17:37:26.542Z,20.30
2019-03-24T17:39:57.162Z,18.50
2019-03-24T17:42:28.721Z,16.60
2019-03-24T17:44:59.243Z,16.87
2019-03-24T17:47:30.108Z,20.48
2019-03-24T17:50:00.608Z,27.55
2019-03-24T17:52:31.134Z,24.18
2019-03-24T17:55:01.645Z,20.20
2019-03-24T17:57:32.192Z,12.88
2019-03-24T18:00:07.167Z,20.80
2019-03-24T18:02:38.284Z,16.17
2019-03-24T18:05:08.900Z,16.05
2019-03-24T18:07:39.445Z,12.80
2019-03-24T18:10:10.556Z,16.25
2019-03-24T18:12:41.099Z,21.93
2019-03-24T18:15:12.782Z,14.05
2019-03-24T18:17:43.319Z,22.67
2019-03-24T18:20:17.083Z,27.62
2019-03-24T18:22:47.701Z,32.08
2019-03-24T18:25:18.203Z,32.20
2019-03-24T18:27:48.665Z,21.73
2019-03-24T18:30:19.118Z,22.77
2019-03-24T18:32:52.942Z,26.75
2019-03-24T18:35:41.020Z,31.90
2019-03-24T18:38:12.399Z,33.30
2019-03-24T18:40:42.979Z,23.22
2019-03-24T18:43:13.521Z,32.83
2019-03-24T18:45:44.010Z,33.53
2019-03-24T18:48:14.891Z,21.57
2019-03-24T18:50:45.399Z,28.42
2019-03-24T18:53:15.942Z,24.75
2019-03-24T18:55:46.466Z,20.70
2019-03-24T18:58:18.095Z,17.25
2019-03-24T19:00:48.622Z,21.65
2019-03-24T19:03:19.074Z,24.50
2019-03-24T19:05:49.714Z,19.32
2019-03-24T19:08:20.278Z,17.52
2019-03-24T19:10:50.799Z,22.58
2019-03-24T19:13:21.497Z,27.22
2019-03-24T19:15:52.095Z,21.73
2019-03-24T19:18:22.755Z,20.57
2019-03-24T19:20:53.250Z,22.95
2019-03-24T19:23:23.882Z,21.48
2019-03-24T19:25:54.449Z,15.28
2019-03-24T19:28:25.063Z,14.78
2019-03-24T19:30:55.570Z,15.00
2019-03-24T19:33:26.136Z,15.93
2019-03-24T19:35:56.807Z,17.00
2019-03-24T19:38:27.497Z,16.45
2019-03-24T19:40:59.585Z,20.00
2019-03-24T19:43:30.505Z,18.30
2019-03-24T19:46:02.179Z,18.80
2019-03-24T19:48:32.711Z,16.27
2019-03-24T19:51:03.207Z,13.38
2019-03-24T19:53:33.745Z,15.25
2019-03-24T19:56:04.238Z,15.93
2019-03-24T19:58:34.848Z,18.02
2019-03-24T20:01:05.709Z,18.50
2019-03-24T20:03:36.326Z,16.75
2019-03-24T20:06:06.852Z,16.02
2019-03-24T20:08:37.465Z,11.60
2019-03-24T20:11:08.004Z,15.60
2019-03-24T20:13:39.272Z,15.45
2019-03-24T20:16:10.165Z,18.70
2019-03-24T20:18:43.370Z,14.30
2019-03-24T20:21:14.516Z,12.98
2019-03-24T20:23:45.567Z,15.25
2019-03-24T20:32:38.500Z,17.27
2019-03-24T20:35:10.763Z,14.23
2019-03-24T20:37:41.296Z,17.55
2019-03-24T20:40:12.498Z,21.57
2019-03-24T20:42:43.360Z,12.03
2019-03-24T20:45:14.770Z,15.08
2019-03-24T20:47:45.658Z,16.02
2019-03-24T20:50:16.731Z,16.82
2019-03-24T20:52:47.229Z,17.20
2019-03-24T20:55:20.469Z,14.18
2019-03-24T20:57:52.433Z,13.48
2019-03-24T21:00:35.065Z,12.88
2019-03-24T21:03:06.111Z,16.12
2019-03-24T21:05:38.172Z,12.85
2019-03-24T21:08:11.004Z,12.55
2019-03-24T21:10:42.168Z,16.70
2019-03-24T21:13:12.688Z,11.95
2019-03-24T21:15:43.366Z,15.98
2019-03-24T21:18:13.783Z,15.45
2019-03-24T21:20:44.388Z,15.18
2019-03-24T21:23:14.903Z,16.00
2019-03-24T21:25:45.525Z,19.65
2019-03-24T21:28:16.086Z,16.17
2019-03-24T21:30:46.645Z,15.95
2019-03-24T21:33:18.255Z,17.10
2019-03-24T21:35:48.782Z,15.43
2019-03-24T21:38:19.368Z,17.12
2019-03-24T21:40:49.900Z,17.05
2019-03-24T21:43:20.439Z,15.68
2019-03-24T21:45:50.987Z,22.65
2019-03-24T21:48:21.530Z,17.57
2019-03-24T21:50:52.064Z,18.70
2019-03-24T21:53:22.509Z,41.58
2019-03-24T21:55:52.976Z,43.68
2019-03-24T21:58:23.500Z,31.55
2019-03-24T22:00:54.088Z,23.15
2019-03-24T22:03:24.542Z,35.05
2019-03-24T22:05:55.458Z,27.27
2019-03-24T22:08:25.913Z,29.65
2019-03-24T22:10:56.482Z,23.10
2019-03-24T22:13:27.055Z,26.15
2019-03-24T22:15:57.578Z,26.05
2019-03-24T22:18:28.150Z,26.52
2019-03-24T22:20:58.631Z,38.50
2019-03-24T22:23:29.165Z,38.92
2019-03-24T22:25:59.712Z,48.58
2019-03-24T22:28:30.220Z,46.02
2019-03-24T22:31:00.745Z,50.67
2019-03-24T22:33:31.272Z,51.35
2019-03-24T22:36:01.750Z,46.98
2019-03-24T22:38:32.312Z,45.95
2019-03-24T22:41:02.794Z,38.55
2019-03-24T22:43:33.286Z,42.67
2019-03-24T22:46:03.838Z,44.70
2019-03-24T22:48:34.301Z,37.75
2019-03-24T22:51:08.016Z,38.50
2019-03-24T22:53:40.177Z,30.65
2019-03-24T22:56:10.654Z,32.95
2019-03-24T22:58:41.270Z,33.08
2019-03-24T23:01:11.943Z,26.35
2019-03-24T23:03:42.492Z,24.23
2019-03-24T23:06:13.064Z,26.30
2019-03-24T23:08:43.639Z,22.75
2019-03-24T23:11:14.271Z,26.27
2019-03-24T23:13:44.842Z,25.40
2019-03-24T23:16:16.903Z,24.53
2019-03-24T23:18:48.992Z,35.95
2019-03-24T23:21:19.598Z,33.20
2019-03-24T23:23:50.206Z,34.18
2019-03-24T23:26:20.771Z,38.57
2019-03-24T23:28:51.280Z,33.63
2019-03-24T23:31:23.010Z,31.85
2019-03-24T23:33:53.523Z,23.03
2019-03-24T23:36:24.072Z,21.27
2019-03-24T23:38:57.194Z,23.37
2019-03-24T23:41:26.860Z,25.80
2019-03-24T23:43:59.218Z,26.13
2019-03-24T23:46:29.847Z,32.93
2019-03-24T23:49:00.518Z,26.90
2019-03-24T23:51:31.456Z,32.17
2019-03-24T23:54:01.965Z,26.60
2019-03-24T23:56:32.573Z,31.50
2019-03-24T23:59:03.155Z,29.97
